sensor_id;sensor_type;location;lat;lon;timestamp;P1;durP1;ratioP1;P2;durP2;ratioP2
77304;SDS011;66364;52.622;7.746;2023-02-28T00:01:37;6.70;;;6.05;;
77304;SDS011;66364;52.622;7.746;2023-02-28T00:03:38;9.77;;;6.97;;
77304;SDS011;66364;52.622;7.746;2023-02-28T00:05:39;8.80;;;6.27;;
77304;SDS011;66364;52.622;7.746;2023-02-28T00:07:39;7.30;;;6.50;;
77304;SDS011;66364;52.622;7.746;2023-02-28T00:09:41;12.68;;;7.10;;
77304;SDS011;66364;52.622;7.746;2023-02-28T00:11:42;11.60;;;5.80;;
77304;SDS011;66364;52.622;7.746;2023-02-28T00:13:45;6.80;;;5.70;;
77304;SDS011;66364;52.622;7.746;2023-02-28T00:15:46;8.28;;;5.35;;
77304;SDS011;66364;52.622;7.746;2023-02-28T00:17:47;6.97;;;6.27;;
77304;SDS011;66364;52.622;7.746;2023-02-28T00:19:48;8.13;;;5.70;;
77304;SDS011;66364;52.622;7.746;2023-02-28T00:21:48;6.50;;;5.87;;
77304;SDS011;66364;52.622;7.746;2023-02-28T00:23:49;9.60;;;7.30;;
77304;SDS011;66364;52.622;7.746;2023-02-28T00:25:50;9.57;;;7.03;;
77304;SDS011;66364;52.622;7.746;2023-02-28T00:29:55;8.18;;;5.97;;
77304;SDS011;66364;52.622;7.746;2023-02-28T00:31:56;8.23;;;6.90;;
77304;SDS011;66364;52.622;7.746;2023-02-28T00:33:56;9.37;;;8.40;;
77304;SDS011;66364;52.622;7.746;2023-02-28T00:36:01;9.83;;;7.27;;
77304;SDS011;66364;52.622;7.746;2023-02-28T00:38:03;9.70;;;8.65;;
77304;SDS011;66364;52.622;7.746;2023-02-28T00:40:11;8.75;;;7.70;;
77304;SDS011;66364;52.622;7.746;2023-02-28T00:42:12;15.28;;;9.33;;
77304;SDS011;66364;52.622;7.746;2023-02-28T00:44:12;13.70;;;8.17;;
77304;SDS011;66364;52.622;7.746;2023-02-28T00:46:13;7.43;;;6.73;;
77304;SDS011;66364;52.622;7.746;2023-02-28T00:48:14;9.50;;;7.80;;
77304;SDS011;66364;52.622;7.746;2023-02-28T00:50:16;7.40;;;6.70;;
77304;SDS011;66364;52.622;7.746;2023-02-28T00:52:18;7.83;;;7.12;;
77304;SDS011;66364;52.622;7.746;2023-02-28T00:54:25;8.57;;;7.13;;
77304;SDS011;66364;52.622;7.746;2023-02-28T00:56:26;10.00;;;7.60;;
77304;SDS011;66364;52.622;7.746;2023-02-28T00:58:26;6.70;;;6.10;;
77304;SDS011;66364;52.622;7.746;2023-02-28T01:00:27;7.43;;;5.53;;
77304;SDS011;66364;52.622;7.746;2023-02-28T01:02:28;7.45;;;5.95;;
77304;SDS011;66364;52.622;7.746;2023-02-28T01:04:35;7.60;;;6.22;;
77304;SDS011;66364;52.622;7.746;2023-02-28T01:06:36;6.55;;;5.15;;
77304;SDS011;66364;52.622;7.746;2023-02-28T01:08:37;6.30;;;5.70;;
77304;SDS011;66364;52.622;7.746;2023-02-28T01:10:37;7.27;;;6.33;;
77304;SDS011;66364;52.622;7.746;2023-02-28T01:12:38;9.60;;;5.40;;
77304;SDS011;66364;52.622;7.746;2023-02-28T01:14:48;8.87;;;5.83;;
77304;SDS011;66364;52.622;7.746;2023-02-28T01:16:48;6.83;;;6.03;;
77304;SDS011;66364;52.622;7.746;2023-02-28T01:18:49;7.33;;;5.77;;
77304;SDS011;66364;52.622;7.746;2023-02-28T01:20:50;6.40;;;5.80;;
77304;SDS011;66364;52.622;7.746;2023-02-28T01:22:50;7.17;;;6.47;;
77304;SDS011;66364;52.622;7.746;2023-02-28T01:24:51;7.80;;;7.03;;
77304;SDS011;66364;52.622;7.746;2023-02-28T01:26:52;8.87;;;7.20;;
77304;SDS011;66364;52.622;7.746;2023-02-28T01:33:35;7.20;;;6.50;;
77304;SDS011;66364;52.622;7.746;2023-02-28T01:35:36;6.70;;;6.00;;
77304;SDS011;66364;52.622;7.746;2023-02-28T01:37:37;8.53;;;7.30;;
77304;SDS011;66364;52.622;7.746;2023-02-28T01:39:38;10.27;;;7.33;;
77304;SDS011;66364;52.622;7.746;2023-02-28T01:41:39;7.15;;;6.45;;
77304;SDS011;66364;52.622;7.746;2023-02-28T01:48:01;7.80;;;7.10;;
77304;SDS011;66364;52.622;7.746;2023-02-28T01:50:07;7.80;;;7.05;;
77304;SDS011;66364;52.622;7.746;2023-02-28T01:52:10;8.10;;;7.17;;
77304;SDS011;66364;52.622;7.746;2023-02-28T01:54:14;8.13;;;7.40;;
77304;SDS011;66364;52.622;7.746;2023-02-28T01:56:24;11.60;;;6.90;;
77304;SDS011;66364;52.622;7.746;2023-02-28T01:58:27;7.45;;;6.58;;
77304;SDS011;66364;52.622;7.746;2023-02-28T02:00:28;8.80;;;6.90;;
77304;SDS011;66364;52.622;7.746;2023-02-28T02:02:30;8.85;;;6.75;;
77304;SDS011;66364;52.622;7.746;2023-02-28T02:04:37;8.97;;;8.07;;
77304;SDS011;66364;52.622;7.746;2023-02-28T02:06:42;8.40;;;6.22;;
77304;SDS011;66364;52.622;7.746;2023-02-28T02:08:45;8.43;;;7.42;;
77304;SDS011;66364;52.622;7.746;2023-02-28T02:10:46;6.93;;;6.30;;
77304;SDS011;66364;52.622;7.746;2023-02-28T02:17:35;9.15;;;7.03;;
77304;SDS011;66364;52.622;7.746;2023-02-28T02:27:05;6.95;;;6.25;;
77304;SDS011;66364;52.622;7.746;2023-02-28T02:31:56;9.50;;;7.83;;
77304;SDS011;66364;52.622;7.746;2023-02-28T02:36:38;6.62;;;6.03;;
77304;SDS011;66364;52.622;7.746;2023-02-28T02:41:17;9.78;;;6.65;;
77304;SDS011;66364;52.622;7.746;2023-02-28T02:43:40;6.87;;;6.10;;
77304;SDS011;66364;52.622;7.746;2023-02-28T02:46:14;7.17;;;5.70;;
77304;SDS011;66364;52.622;7.746;2023-02-28T02:48:45;6.70;;;5.35;;
77304;SDS011;66364;52.622;7.746;2023-02-28T02:50:55;6.40;;;5.75;;
77304;SDS011;66364;52.622;7.746;2023-02-28T02:53:00;7.35;;;6.22;;
77304;SDS011;66364;52.622;7.746;2023-02-28T02:55:03;6.60;;;6.10;;
77304;SDS011;66364;52.622;7.746;2023-02-28T02:57:11;12.00;;;6.35;;
77304;SDS011;66364;52.622;7.746;2023-02-28T02:59:11;5.70;;;5.20;;
77304;SDS011;66364;52.622;7.746;2023-02-28T03:01:15;8.35;;;5.97;;
77304;SDS011;66364;52.622;7.746;2023-02-28T03:03:18;6.03;;;5.33;;
77304;SDS011;66364;52.622;7.746;2023-02-28T03:05:47;5.75;;;5.25;;
77304;SDS011;66364;52.622;7.746;2023-02-28T03:07:56;7.50;;;6.67;;
77304;SDS011;66364;52.622;7.746;2023-02-28T03:10:25;5.70;;;5.20;;
77304;SDS011;66364;52.622;7.746;2023-02-28T03:12:26;7.05;;;5.53;;
77304;SDS011;66364;52.622;7.746;2023-02-28T03:21:23;6.72;;;5.85;;
77304;SDS011;66364;52.622;7.746;2023-02-28T03:23:34;5.30;;;4.90;;
77304;SDS011;66364;52.622;7.746;2023-02-28T03:28:01;6.83;;;5.40;;
77304;SDS011;66364;52.622;7.746;2023-02-28T03:30:19;6.55;;;5.90;;
77304;SDS011;66364;52.622;7.746;2023-02-28T03:32:37;6.65;;;5.47;;
77304;SDS011;66364;52.622;7.746;2023-02-28T03:34:41;8.15;;;5.72;;
77304;SDS011;66364;52.622;7.746;2023-02-28T03:36:47;11.85;;;5.67;;
77304;SDS011;66364;52.622;7.746;2023-02-28T03:38:58;6.95;;;5.67;;
77304;SDS011;66364;52.622;7.746;2023-02-28T03:41:02;6.22;;;5.10;;
77304;SDS011;66364;52.622;7.746;2023-02-28T03:43:14;5.85;;;5.35;;
77304;SDS011;66364;52.622;7.746;2023-02-28T03:45:36;7.65;;;5.97;;
77304;SDS011;66364;52.622;7.746;2023-02-28T03:47:40;6.45;;;5.85;;
77304;SDS011;66364;52.622;7.746;2023-02-28T03:49:48;6.42;;;5.92;;
77304;SDS011;66364;52.622;7.746;2023-02-28T03:52:06;9.35;;;5.42;;
77304;SDS011;66364;52.622;7.746;2023-02-28T03:54:26;8.75;;;5.92;;
77304;SDS011;66364;52.622;7.746;2023-02-28T03:56:30;7.65;;;6.20;;
77304;SDS011;66364;52.622;7.746;2023-02-28T03:58:37;7.35;;;6.62;;
77304;SDS011;66364;52.622;7.746;2023-02-28T04:01:00;7.55;;;6.85;;
77304;SDS011;66364;52.622;7.746;2023-02-28T04:05:25;7.78;;;5.75;;
77304;SDS011;66364;52.622;7.746;2023-02-28T04:09:43;9.90;;;5.90;;
77304;SDS011;66364;52.622;7.746;2023-02-28T04:11:45;6.47;;;5.87;;
77304;SDS011;66364;52.622;7.746;2023-02-28T04:13:49;11.38;;;7.35;;
77304;SDS011;66364;52.622;7.746;2023-02-28T04:15:50;6.80;;;5.87;;
77304;SDS011;66364;52.622;7.746;2023-02-28T04:17:50;10.43;;;5.40;;
77304;SDS011;66364;52.622;7.746;2023-02-28T04:19:51;7.30;;;6.53;;
77304;SDS011;66364;52.622;7.746;2023-02-28T04:21:52;8.38;;;6.35;;
77304;SDS011;66364;52.622;7.746;2023-02-28T04:23:54;7.00;;;6.35;;
77304;SDS011;66364;52.622;7.746;2023-02-28T04:28:15;7.92;;;6.47;;
77304;SDS011;66364;52.622;7.746;2023-02-28T04:30:16;7.57;;;6.17;;
77304;SDS011;66364;52.622;7.746;2023-02-28T04:32:24;8.47;;;6.87;;
77304;SDS011;66364;52.622;7.746;2023-02-28T04:34:29;8.48;;;6.28;;
77304;SDS011;66364;52.622;7.746;2023-02-28T04:36:33;8.55;;;6.22;;
77304;SDS011;66364;52.622;7.746;2023-02-28T04:38:35;6.95;;;5.78;;
77304;SDS011;66364;52.622;7.746;2023-02-28T04:40:37;7.12;;;6.42;;
77304;SDS011;66364;52.622;7.746;2023-02-28T04:42:38;7.60;;;6.50;;
77304;SDS011;66364;52.622;7.746;2023-02-28T04:44:38;7.43;;;6.80;;
77304;SDS011;66364;52.622;7.746;2023-02-28T04:46:39;6.70;;;6.00;;
77304;SDS011;66364;52.622;7.746;2023-02-28T04:48:42;9.65;;;6.58;;
77304;SDS011;66364;52.622;7.746;2023-02-28T04:50:43;7.45;;;6.75;;
77304;SDS011;66364;52.622;7.746;2023-02-28T04:52:44;7.73;;;6.77;;
77304;SDS011;66364;52.622;7.746;2023-02-28T04:54:47;9.20;;;8.27;;
77304;SDS011;66364;52.622;7.746;2023-02-28T04:56:47;8.50;;;7.70;;
77304;SDS011;66364;52.622;7.746;2023-02-28T04:58:48;11.83;;;7.03;;
77304;SDS011;66364;52.622;7.746;2023-02-28T05:01:04;7.67;;;6.97;;
77304;SDS011;66364;52.622;7.746;2023-02-28T05:03:13;7.83;;;6.53;;
77304;SDS011;66364;52.622;7.746;2023-02-28T05:05:14;7.80;;;7.03;;
77304;SDS011;66364;52.622;7.746;2023-02-28T05:07:15;8.30;;;6.90;;
77304;SDS011;66364;52.622;7.746;2023-02-28T05:09:16;7.60;;;6.53;;
77304;SDS011;66364;52.622;7.746;2023-02-28T05:11:18;8.03;;;7.30;;
77304;SDS011;66364;52.622;7.746;2023-02-28T05:13:23;8.73;;;7.83;;
77304;SDS011;66364;52.622;7.746;2023-02-28T05:15:24;11.37;;;7.77;;
77304;SDS011;66364;52.622;7.746;2023-02-28T05:17:25;9.77;;;8.77;;
77304;SDS011;66364;52.622;7.746;2023-02-28T05:19:32;11.30;;;8.63;;
77304;SDS011;66364;52.622;7.746;2023-02-28T05:21:34;10.10;;;7.90;;
77304;SDS011;66364;52.622;7.746;2023-02-28T05:26:13;9.63;;;8.63;;
77304;SDS011;66364;52.622;7.746;2023-02-28T05:28:13;8.20;;;7.37;;
77304;SDS011;66364;52.622;7.746;2023-02-28T05:32:20;10.93;;;8.23;;
77304;SDS011;66364;52.622;7.746;2023-02-28T05:34:21;12.80;;;8.70;;
77304;SDS011;66364;52.622;7.746;2023-02-28T05:36:21;12.73;;;8.63;;
77304;SDS011;66364;52.622;7.746;2023-02-28T05:38:22;9.00;;;8.07;;
77304;SDS011;66364;52.622;7.746;2023-02-28T05:40:23;10.10;;;9.20;;
77304;SDS011;66364;52.622;7.746;2023-02-28T05:42:23;9.07;;;7.40;;
77304;SDS011;66364;52.622;7.746;2023-02-28T05:44:24;9.00;;;8.20;;
77304;SDS011;66364;52.622;7.746;2023-02-28T05:46:25;9.63;;;8.73;;
77304;SDS011;66364;52.622;7.746;2023-02-28T05:48:26;9.73;;;8.40;;
77304;SDS011;66364;52.622;7.746;2023-02-28T05:50:26;9.20;;;7.57;;
77304;SDS011;66364;52.622;7.746;2023-02-28T05:52:28;11.07;;;7.67;;
77304;SDS011;66364;52.622;7.746;2023-02-28T05:54:35;10.48;;;8.33;;
77304;SDS011;66364;52.622;7.746;2023-02-28T05:56:36;11.05;;;7.78;;
77304;SDS011;66364;52.622;7.746;2023-02-28T05:58:52;8.63;;;7.72;;
77304;SDS011;66364;52.622;7.746;2023-02-28T06:00:52;9.38;;;8.35;;
77304;SDS011;66364;52.622;7.746;2023-02-28T06:02:53;8.63;;;7.93;;
77304;SDS011;66364;52.622;7.746;2023-02-28T06:04:54;9.10;;;8.30;;
77304;SDS011;66364;52.622;7.746;2023-02-28T06:06:54;9.83;;;8.13;;
77304;SDS011;66364;52.622;7.746;2023-02-28T06:08:55;9.10;;;7.97;;
77304;SDS011;66364;52.622;7.746;2023-02-28T06:10:56;8.63;;;7.70;;
77304;SDS011;66364;52.622;7.746;2023-02-28T06:12:59;8.40;;;7.60;;
77304;SDS011;66364;52.622;7.746;2023-02-28T06:15:02;9.30;;;7.80;;
77304;SDS011;66364;52.622;7.746;2023-02-28T06:17:03;10.50;;;8.60;;
77304;SDS011;66364;52.622;7.746;2023-02-28T06:19:10;10.40;;;8.38;;
77304;SDS011;66364;52.622;7.746;2023-02-28T06:21:11;9.78;;;8.48;;
77304;SDS011;66364;52.622;7.746;2023-02-28T06:23:12;9.33;;;7.78;;
77304;SDS011;66364;52.622;7.746;2023-02-28T06:25:13;11.30;;;7.87;;
77304;SDS011;66364;52.622;7.746;2023-02-28T06:27:14;13.77;;;8.27;;
77304;SDS011;66364;52.622;7.746;2023-02-28T06:31:47;13.95;;;9.18;;
77304;SDS011;66364;52.622;7.746;2023-02-28T06:33:48;12.97;;;9.47;;
77304;SDS011;66364;52.622;7.746;2023-02-28T06:35:51;8.93;;;7.90;;
77304;SDS011;66364;52.622;7.746;2023-02-28T06:37:53;10.03;;;8.53;;
77304;SDS011;66364;52.622;7.746;2023-02-28T06:39:59;11.30;;;8.60;;
77304;SDS011;66364;52.622;7.746;2023-02-28T06:42:00;10.88;;;8.90;;
77304;SDS011;66364;52.622;7.746;2023-02-28T06:44:01;9.40;;;8.17;;
77304;SDS011;66364;52.622;7.746;2023-02-28T06:46:02;10.07;;;9.07;;
77304;SDS011;66364;52.622;7.746;2023-02-28T06:48:06;12.13;;;9.13;;
77304;SDS011;66364;52.622;7.746;2023-02-28T06:50:08;9.23;;;8.25;;
77304;SDS011;66364;52.622;7.746;2023-02-28T06:52:37;9.33;;;8.40;;
77304;SDS011;66364;52.622;7.746;2023-02-28T06:54:47;9.75;;;8.35;;
77304;SDS011;66364;52.622;7.746;2023-02-28T06:56:48;10.18;;;8.83;;
77304;SDS011;66364;52.622;7.746;2023-02-28T06:58:49;10.53;;;9.23;;
77304;SDS011;66364;52.622;7.746;2023-02-28T07:00:51;12.33;;;8.75;;
77304;SDS011;66364;52.622;7.746;2023-02-28T07:02:53;10.45;;;9.35;;
77304;SDS011;66364;52.622;7.746;2023-02-28T07:04:53;9.77;;;8.63;;
77304;SDS011;66364;52.622;7.746;2023-02-28T07:06:54;9.70;;;8.80;;
77304;SDS011;66364;52.622;7.746;2023-02-28T07:08:55;9.13;;;8.33;;
77304;SDS011;66364;52.622;7.746;2023-02-28T07:10:56;8.17;;;7.30;;
77304;SDS011;66364;52.622;7.746;2023-02-28T07:12:57;7.70;;;6.90;;
77304;SDS011;66364;52.622;7.746;2023-02-28T07:14:58;9.93;;;7.80;;
77304;SDS011;66364;52.622;7.746;2023-02-28T07:16:58;8.90;;;8.00;;
77304;SDS011;66364;52.622;7.746;2023-02-28T07:18:59;9.17;;;7.37;;
77304;SDS011;66364;52.622;7.746;2023-02-28T07:21:03;10.40;;;7.73;;
77304;SDS011;66364;52.622;7.746;2023-02-28T07:23:06;8.05;;;7.03;;
77304;SDS011;66364;52.622;7.746;2023-02-28T07:25:07;6.40;;;5.80;;
77304;SDS011;66364;52.622;7.746;2023-02-28T07:27:08;7.00;;;6.30;;
77304;SDS011;66364;52.622;7.746;2023-02-28T07:29:15;8.57;;;7.77;;
77304;SDS011;66364;52.622;7.746;2023-02-28T07:31:16;9.75;;;7.12;;
77304;SDS011;66364;52.622;7.746;2023-02-28T07:33:17;7.60;;;6.15;;
77304;SDS011;66364;52.622;7.746;2023-02-28T07:35:19;7.07;;;6.40;;
77304;SDS011;66364;52.622;7.746;2023-02-28T07:37:20;7.87;;;7.08;;
77304;SDS011;66364;52.622;7.746;2023-02-28T07:39:21;7.30;;;6.50;;
77304;SDS011;66364;52.622;7.746;2023-02-28T07:41:23;6.85;;;6.33;;
77304;SDS011;66364;52.622;7.746;2023-02-28T07:43:24;8.08;;;6.97;;
77304;SDS011;66364;52.622;7.746;2023-02-28T07:45:25;8.80;;;6.80;;
77304;SDS011;66364;52.622;7.746;2023-02-28T07:47:25;7.60;;;6.90;;
77304;SDS011;66364;52.622;7.746;2023-02-28T07:49:26;8.03;;;7.17;;
77304;SDS011;66364;52.622;7.746;2023-02-28T07:51:27;10.43;;;7.97;;
77304;SDS011;66364;52.622;7.746;2023-02-28T07:53:28;6.37;;;5.77;;
77304;SDS011;66364;52.622;7.746;2023-02-28T07:55:29;7.75;;;5.65;;
77304;SDS011;66364;52.622;7.746;2023-02-28T07:57:29;5.10;;;4.60;;
77304;SDS011;66364;52.622;7.746;2023-02-28T07:59:30;6.20;;;4.67;;
77304;SDS011;66364;52.622;7.746;2023-02-28T08:01:31;5.87;;;5.30;;
77304;SDS011;66364;52.622;7.746;2023-02-28T08:03:32;6.80;;;5.10;;
77304;SDS011;66364;52.622;7.746;2023-02-28T08:05:32;5.13;;;4.73;;
77304;SDS011;66364;52.622;7.746;2023-02-28T08:07:33;6.73;;;4.43;;
77304;SDS011;66364;52.622;7.746;2023-02-28T08:09:34;5.90;;;4.50;;
77304;SDS011;66364;52.622;7.746;2023-02-28T08:11:35;4.50;;;4.05;;
77304;SDS011;66364;52.622;7.746;2023-02-28T08:13:36;7.30;;;4.73;;
77304;SDS011;66364;52.622;7.746;2023-02-28T08:15:37;5.00;;;4.60;;
77304;SDS011;66364;52.622;7.746;2023-02-28T08:17:37;5.10;;;4.50;;
77304;SDS011;66364;52.622;7.746;2023-02-28T08:19:38;4.93;;;3.47;;
77304;SDS011;66364;52.622;7.746;2023-02-28T08:21:39;4.30;;;2.60;;
77304;SDS011;66364;52.622;7.746;2023-02-28T08:23:39;6.53;;;3.60;;
77304;SDS011;66364;52.622;7.746;2023-02-28T08:25:40;3.10;;;2.90;;
77304;SDS011;66364;52.622;7.746;2023-02-28T08:27:41;2.33;;;1.90;;
77304;SDS011;66364;52.622;7.746;2023-02-28T08:29:41;2.20;;;1.93;;
77304;SDS011;66364;52.622;7.746;2023-02-28T08:31:42;3.10;;;1.97;;
77304;SDS011;66364;52.622;7.746;2023-02-28T08:33:43;3.43;;;2.50;;
77304;SDS011;66364;52.622;7.746;2023-02-28T08:35:44;1.80;;;1.70;;
77304;SDS011;66364;52.622;7.746;2023-02-28T08:37:47;3.13;;;2.60;;
77304;SDS011;66364;52.622;7.746;2023-02-28T08:39:48;3.08;;;2.50;;
77304;SDS011;66364;52.622;7.746;2023-02-28T08:41:48;2.50;;;2.23;;
77304;SDS011;66364;52.622;7.746;2023-02-28T08:43:49;2.50;;;2.30;;
77304;SDS011;66364;52.622;7.746;2023-02-28T08:45:53;2.77;;;1.40;;
77304;SDS011;66364;52.622;7.746;2023-02-28T08:47:55;1.40;;;1.30;;
77304;SDS011;66364;52.622;7.746;2023-02-28T08:49:56;2.00;;;1.80;;
77304;SDS011;66364;52.622;7.746;2023-02-28T08:51:56;2.50;;;1.83;;
77304;SDS011;66364;52.622;7.746;2023-02-28T08:54:00;1.57;;;1.47;;
77304;SDS011;66364;52.622;7.746;2023-02-28T08:56:11;2.58;;;1.57;;
77304;SDS011;66364;52.622;7.746;2023-02-28T08:58:13;2.42;;;1.35;;
77304;SDS011;66364;52.622;7.746;2023-02-28T09:00:14;1.83;;;1.60;;
77304;SDS011;66364;52.622;7.746;2023-02-28T09:02:15;1.85;;;1.47;;
77304;SDS011;66364;52.622;7.746;2023-02-28T09:04:16;1.30;;;1.10;;
77304;SDS011;66364;52.622;7.746;2023-02-28T09:06:18;2.10;;;1.20;;
77304;SDS011;66364;52.622;7.746;2023-02-28T09:08:20;1.45;;;1.35;;
77304;SDS011;66364;52.622;7.746;2023-02-28T09:10:21;1.70;;;1.07;;
77304;SDS011;66364;52.622;7.746;2023-02-28T09:12:22;1.60;;;1.50;;
77304;SDS011;66364;52.622;7.746;2023-02-28T09:14:24;1.70;;;1.30;;
77304;SDS011;66364;52.622;7.746;2023-02-28T09:16:25;2.97;;;1.87;;
77304;SDS011;66364;52.622;7.746;2023-02-28T09:18:26;3.55;;;1.45;;
77304;SDS011;66364;52.622;7.746;2023-02-28T09:20:27;1.50;;;1.40;;
77304;SDS011;66364;52.622;7.746;2023-02-28T09:22:27;1.70;;;1.60;;
77304;SDS011;66364;52.622;7.746;2023-02-28T09:24:28;1.77;;;1.50;;
77304;SDS011;66364;52.622;7.746;2023-02-28T09:26:29;1.93;;;1.73;;
77304;SDS011;66364;52.622;7.746;2023-02-28T09:28:29;1.87;;;0.90;;
77304;SDS011;66364;52.622;7.746;2023-02-28T09:30:30;1.40;;;1.20;;
77304;SDS011;66364;52.622;7.746;2023-02-28T09:32:31;1.27;;;1.17;;
77304;SDS011;66364;52.622;7.746;2023-02-28T09:34:32;1.32;;;1.12;;
77304;SDS011;66364;52.622;7.746;2023-02-28T09:36:33;3.27;;;0.90;;
77304;SDS011;66364;52.622;7.746;2023-02-28T09:38:34;2.17;;;0.93;;
77304;SDS011;66364;52.622;7.746;2023-02-28T09:40:35;1.97;;;1.00;;
77304;SDS011;66364;52.622;7.746;2023-02-28T09:42:39;3.30;;;1.55;;
77304;SDS011;66364;52.622;7.746;2023-02-28T09:49:38;2.27;;;1.50;;
77304;SDS011;66364;52.622;7.746;2023-02-28T09:54:01;1.50;;;1.40;;
77304;SDS011;66364;52.622;7.746;2023-02-28T09:56:07;1.82;;;1.70;;
77304;SDS011;66364;52.622;7.746;2023-02-28T09:58:09;1.60;;;1.40;;
77304;SDS011;66364;52.622;7.746;2023-02-28T10:00:30;2.05;;;1.62;;
77304;SDS011;66364;52.622;7.746;2023-02-28T10:02:42;1.80;;;1.60;;
77304;SDS011;66364;52.622;7.746;2023-02-28T10:04:54;1.87;;;1.60;;
77304;SDS011;66364;52.622;7.746;2023-02-28T10:07:01;2.20;;;1.55;;
77304;SDS011;66364;52.622;7.746;2023-02-28T10:09:10;1.95;;;1.75;;
77304;SDS011;66364;52.622;7.746;2023-02-28T10:11:14;2.80;;;2.22;;
77304;SDS011;66364;52.622;7.746;2023-02-28T10:13:19;1.80;;;1.70;;
77304;SDS011;66364;52.622;7.746;2023-02-28T10:15:30;1.62;;;1.32;;
77304;SDS011;66364;52.622;7.746;2023-02-28T10:17:37;1.45;;;1.17;;
77304;SDS011;66364;52.622;7.746;2023-02-28T10:19:52;1.98;;;1.87;;
77304;SDS011;66364;52.622;7.746;2023-02-28T10:22:26;1.00;;;1.00;;
77304;SDS011;66364;52.622;7.746;2023-02-28T10:24:16;1.40;;;1.30;;
77304;SDS011;66364;52.622;7.746;2023-02-28T10:26:25;1.55;;;1.20;;
77304;SDS011;66364;52.622;7.746;2023-02-28T10:28:29;2.37;;;1.20;;
77304;SDS011;66364;52.622;7.746;2023-02-28T10:30:32;1.40;;;1.30;;
77304;SDS011;66364;52.622;7.746;2023-02-28T10:32:33;1.43;;;1.30;;
77304;SDS011;66364;52.622;7.746;2023-02-28T10:34:35;4.15;;;1.57;;
77304;SDS011;66364;52.622;7.746;2023-02-28T10:36:36;2.07;;;1.20;;
77304;SDS011;66364;52.622;7.746;2023-02-28T10:38:38;1.77;;;1.47;;
77304;SDS011;66364;52.622;7.746;2023-02-28T10:40:39;2.33;;;1.45;;
77304;SDS011;66364;52.622;7.746;2023-02-28T10:42:40;1.57;;;1.20;;
77304;SDS011;66364;52.622;7.746;2023-02-28T10:44:41;2.57;;;1.53;;
77304;SDS011;66364;52.622;7.746;2023-02-28T10:46:48;2.10;;;1.17;;
77304;SDS011;66364;52.622;7.746;2023-02-28T10:49:06;2.08;;;1.20;;
77304;SDS011;66364;52.622;7.746;2023-02-28T10:51:16;1.72;;;1.37;;
77304;SDS011;66364;52.622;7.746;2023-02-28T10:55:26;1.40;;;1.30;;
77304;SDS011;66364;52.622;7.746;2023-02-28T10:57:27;1.57;;;1.43;;
77304;SDS011;66364;52.622;7.746;2023-02-28T10:59:30;1.80;;;1.70;;
77304;SDS011;66364;52.622;7.746;2023-02-28T11:03:35;1.42;;;1.32;;
77304;SDS011;66364;52.622;7.746;2023-02-28T11:05:36;1.27;;;1.17;;
77304;SDS011;66364;52.622;7.746;2023-02-28T11:07:37;1.20;;;1.10;;
77304;SDS011;66364;52.622;7.746;2023-02-28T11:09:39;1.30;;;1.20;;
77304;SDS011;66364;52.622;7.746;2023-02-28T11:11:44;1.27;;;1.10;;
77304;SDS011;66364;52.622;7.746;2023-02-28T11:13:47;1.70;;;1.10;;
77304;SDS011;66364;52.622;7.746;2023-02-28T11:15:52;1.98;;;1.17;;
77304;SDS011;66364;52.622;7.746;2023-02-28T11:20:01;1.30;;;1.20;;
77304;SDS011;66364;52.622;7.746;2023-02-28T11:22:06;2.25;;;1.07;;
77304;SDS011;66364;52.622;7.746;2023-02-28T11:28:41;0.90;;;0.90;;
77304;SDS011;66364;52.622;7.746;2023-02-28T11:30:42;1.82;;;1.10;;
77304;SDS011;66364;52.622;7.746;2023-02-28T11:32:47;2.70;;;2.03;;
77304;SDS011;66364;52.622;7.746;2023-02-28T11:34:59;2.52;;;1.40;;
77304;SDS011;66364;52.622;7.746;2023-02-28T11:37:13;2.27;;;1.77;;
77304;SDS011;66364;52.622;7.746;2023-02-28T11:39:15;1.67;;;1.35;;
77304;SDS011;66364;52.622;7.746;2023-02-28T11:48:27;1.30;;;1.20;;
77304;SDS011;66364;52.622;7.746;2023-02-28T11:52:59;2.20;;;1.80;;
77304;SDS011;66364;52.622;7.746;2023-02-28T11:57:16;1.98;;;1.50;;
77304;SDS011;66364;52.622;7.746;2023-02-28T11:59:34;1.50;;;1.40;;
77304;SDS011;66364;52.622;7.746;2023-02-28T12:06:50;2.25;;;1.20;;
77304;SDS011;66364;52.622;7.746;2023-02-28T12:14:00;2.60;;;2.17;;
77304;SDS011;66364;52.622;7.746;2023-02-28T12:28:01;2.52;;;1.32;;
77304;SDS011;66364;52.622;7.746;2023-02-28T12:34:39;2.65;;;1.35;;
77304;SDS011;66364;52.622;7.746;2023-02-28T12:39:29;1.40;;;1.10;;
77304;SDS011;66364;52.622;7.746;2023-02-28T12:41:03;2.02;;;1.10;;
77304;SDS011;66364;52.622;7.746;2023-02-28T12:43:13;1.62;;;1.30;;
77304;SDS011;66364;52.622;7.746;2023-02-28T12:45:19;1.52;;;1.15;;
77304;SDS011;66364;52.622;7.746;2023-02-28T12:47:22;3.60;;;1.20;;
77304;SDS011;66364;52.622;7.746;2023-02-28T12:49:27;1.43;;;1.00;;
77304;SDS011;66364;52.622;7.746;2023-02-28T12:51:35;1.57;;;1.45;;
77304;SDS011;66364;52.622;7.746;2023-02-28T12:58:58;2.40;;;1.50;;
77304;SDS011;66364;52.622;7.746;2023-02-28T13:06:10;1.37;;;1.27;;
77304;SDS011;66364;52.622;7.746;2023-02-28T13:10:46;1.67;;;1.57;;
77304;SDS011;66364;52.622;7.746;2023-02-28T13:12:50;2.55;;;2.35;;
77304;SDS011;66364;52.622;7.746;2023-02-28T13:15:04;2.55;;;2.00;;
77304;SDS011;66364;52.622;7.746;2023-02-28T13:19:11;2.65;;;1.95;;
77304;SDS011;66364;52.622;7.746;2023-02-28T13:21:28;1.42;;;1.32;;
77304;SDS011;66364;52.622;7.746;2023-02-28T13:25:55;1.80;;;1.50;;
77304;SDS011;66364;52.622;7.746;2023-02-28T13:27:56;3.30;;;1.90;;
77304;SDS011;66364;52.622;7.746;2023-02-28T13:37:27;2.00;;;1.70;;
77304;SDS011;66364;52.622;7.746;2023-02-28T13:41:40;1.80;;;1.70;;
77304;SDS011;66364;52.622;7.746;2023-02-28T13:46:08;2.33;;;2.22;;
77304;SDS011;66364;52.622;7.746;2023-02-28T13:48:20;1.80;;;1.70;;
77304;SDS011;66364;52.622;7.746;2023-02-28T13:50:32;1.70;;;1.60;;
77304;SDS011;66364;52.622;7.746;2023-02-28T13:52:45;1.70;;;1.22;;
77304;SDS011;66364;52.622;7.746;2023-02-28T13:59:45;6.75;;;1.55;;
77304;SDS011;66364;52.622;7.746;2023-02-28T14:02:09;2.72;;;1.60;;
77304;SDS011;66364;52.622;7.746;2023-02-28T14:06:46;2.02;;;1.32;;
77304;SDS011;66364;52.622;7.746;2023-02-28T14:08:55;1.70;;;1.60;;
77304;SDS011;66364;52.622;7.746;2023-02-28T14:11:05;1.60;;;1.47;;
77304;SDS011;66364;52.622;7.746;2023-02-28T14:17:42;1.72;;;1.60;;
77304;SDS011;66364;52.622;7.746;2023-02-28T14:19:47;2.30;;;1.50;;
77304;SDS011;66364;52.622;7.746;2023-02-28T14:24:30;1.55;;;1.45;;
77304;SDS011;66364;52.622;7.746;2023-02-28T14:31:18;1.92;;;1.77;;
77304;SDS011;66364;52.622;7.746;2023-02-28T14:33:39;1.80;;;1.70;;
77304;SDS011;66364;52.622;7.746;2023-02-28T14:38:04;2.40;;;1.50;;
77304;SDS011;66364;52.622;7.746;2023-02-28T14:42:33;2.33;;;2.12;;
77304;SDS011;66364;52.622;7.746;2023-02-28T14:44:38;1.77;;;1.67;;
77304;SDS011;66364;52.622;7.746;2023-02-28T14:46:40;1.67;;;1.57;;
77304;SDS011;66364;52.622;7.746;2023-02-28T14:48:49;1.62;;;1.52;;
77304;SDS011;66364;52.622;7.746;2023-02-28T14:50:52;1.90;;;1.70;;
77304;SDS011;66364;52.622;7.746;2023-02-28T14:52:54;1.82;;;1.72;;
77304;SDS011;66364;52.622;7.746;2023-02-28T14:55:01;2.50;;;2.00;;
77304;SDS011;66364;52.622;7.746;2023-02-28T14:57:00;3.60;;;2.52;;
77304;SDS011;66364;52.622;7.746;2023-02-28T14:59:01;3.83;;;2.30;;
77304;SDS011;66364;52.622;7.746;2023-02-28T15:01:02;2.13;;;2.03;;
77304;SDS011;66364;52.622;7.746;2023-02-28T15:07:31;3.40;;;1.40;;
77304;SDS011;66364;52.622;7.746;2023-02-28T15:09:31;2.23;;;1.80;;
77304;SDS011;66364;52.622;7.746;2023-02-28T15:11:35;2.27;;;2.07;;
77304;SDS011;66364;52.622;7.746;2023-02-28T15:13:39;2.50;;;1.95;;
77304;SDS011;66364;52.622;7.746;2023-02-28T15:15:45;4.60;;;2.52;;
77304;SDS011;66364;52.622;7.746;2023-02-28T15:18:02;1.98;;;1.85;;